Time;durP1;ratioP1;P1;durP2;ratioP2;P2;SDS_P1;SDS_P2;PMS_P1;PMS_P2;Temp;Humidity;BMP_temperature;BMP_pressure;BME280_temperature;BME280_humidity;BME280_pressure;Samples;Min_cycle;Max_cycle;Signal;HPM_P1;HPM_P2
2022/11/13 00:01:09;;;;;;;;;;;;;;;10.25;67.25;96525.28;5056107;28;1066;-60
2022/11/13 00:03:35;;;;;;;;;;;;;;;10.29;67.36;96522.22;5056048;28;1070;-60
2022/11/13 00:06:01;;;;;;;;;;;;;;;10.34;67.54;96517.38;5055865;28;970;-60
2022/11/13 00:08:28;;;;;;;;;;;;;;;10.45;67.37;96526.34;5055867;28;1979;-60
2022/11/13 00:11:01;;;;;;;;;;;;;;;10.63;67.11;96530.16;5056104;28;1014;-60
2022/11/13 00:13:27;;;;;;;;;;;;;;;10.68;67.22;96536.00;5055949;28;1037;-60
2022/11/13 00:15:57;;;;;;;;;;;;;;;10.55;66.50;96535.31;5055899;28;1058;-60
2022/11/13 00:18:23;;;;;;;;;;;;;;;10.43;66.69;96544.34;5055748;28;962;-60
2022/11/13 00:20:50;;;;;;;;;;;;;;;10.30;66.69;96532.00;5038159;28;1062;-60
2022/11/13 00:23:16;;;;;;;;;;;;;;;10.21;67.20;96542.56;5055682;28;1045;-60
2022/11/13 00:25:41;;;;;;;;;;;;;;;10.19;67.04;96540.00;5055878;28;992;-60
2022/11/13 00:28:08;;;;;;;;;;;;;;;10.16;67.34;96538.41;5038073;28;1906;-60
2022/11/13 00:30:34;;;;;;;;;;;;;;;10.17;67.59;96544.63;5037940;28;1060;-60
2022/11/13 00:33:00;;;;;;;;;;;;;;;10.18;67.43;96532.94;5054676;28;1124;-60
2022/11/13 00:35:26;;;;;;;;;;;;;;;10.19;67.51;96526.63;5055469;28;1153;-59
2022/11/13 00:37:53;;;;;;;;;;;;;;;10.19;67.33;96520.41;5055616;28;1428;-60
2022/11/13 00:40:19;;;;;;;;;;;;;;;10.09;67.58;96515.84;5055533;28;1009;-60
2022/11/13 00:42:45;;;;;;;;;;;;;;;9.99;68.04;96522.06;5055365;28;1062;-60
2022/11/13 00:45:11;;;;;;;;;;;;;;;10.02;67.51;96525.31;5055476;28;1005;-60
2022/11/13 00:47:37;;;;;;;;;;;;;;;10.07;67.74;96520.47;5037491;28;1046;-59
2022/11/13 00:50:03;;;;;;;;;;;;;;;10.20;67.22;96516.78;5054951;28;1918;-60
2022/11/13 00:52:29;;;;;;;;;;;;;;;10.17;67.71;96525.91;5055361;28;1033;-60
2022/11/13 00:54:55;;;;;;;;;;;;;;;10.11;67.81;96531.72;5055278;28;1610;-59
2022/11/13 00:57:21;;;;;;;;;;;;;;;10.08;67.84;96524.00;5055174;28;1004;-60
2022/11/13 00:59:47;;;;;;;;;;;;;;;10.12;67.83;96520.94;5055034;28;1078;-60
2022/11/13 01:02:14;;;;;;;;;;;;;;;10.18;67.59;96518.75;5054909;28;1092;-60
2022/11/13 01:04:41;;;;;;;;;;;;;;;10.12;67.92;96515.59;5055213;28;1082;-60
2022/11/13 01:07:07;;;;;;;;;;;;;;;10.09;67.97;96514.97;5054960;28;1591;-60
2022/11/13 01:09:33;;;;;;;;;;;;;;;10.00;68.13;96516.59;5054913;28;1992;-60
2022/11/13 01:11:59;;;;;;;;;;;;;;;10.04;68.15;96515.38;5054811;28;1109;-60
2022/11/13 01:14:25;;;;;;;;;;;;;;;10.04;68.29;96503.84;5054768;28;1203;-59
2022/11/13 01:16:51;;;;;;;;;;;;;;;10.03;68.40;96507.47;5054762;28;970;-60
2022/11/13 01:19:17;;;;;;;;;;;;;;;9.99;68.60;96511.38;5054577;28;1030;-60
2022/11/13 01:21:43;;;;;;;;;;;;;;;9.93;68.95;96516.22;5054884;28;1052;-60
2022/11/13 01:24:09;;;;;;;;;;;;;;;9.90;69.20;96513.81;5053669;28;1276;-60
2022/11/13 01:26:35;;;;;;;;;;;;;;;9.99;68.61;96516.72;5054547;28;978;-59
2022/11/13 01:29:01;;;;;;;;;;;;;;;9.98;69.00;96523.88;5054457;28;1910;-60
2022/11/13 01:31:28;;;;;;;;;;;;;;;10.00;69.02;96521.94;5054473;28;1024;-60
2022/11/13 01:33:55;;;;;;;;;;;;;;;10.02;69.22;96524.50;5054160;28;1047;-59
2022/11/13 01:36:23;;;;;;;;;;;;;;;10.01;69.15;96515.59;5054516;28;994;-60
2022/11/13 01:38:49;;;;;;;;;;;;;;;9.99;69.51;96520.22;5041562;28;1423;-61
2022/11/13 01:41:17;;;;;;;;;;;;;;;9.98;69.23;96523.88;5034321;28;1070;-65
2022/11/13 01:43:43;;;;;;;;;;;;;;;9.96;69.00;96520.50;5034359;28;1001;-60
2022/11/13 01:46:15;;;;;;;;;;;;;;;10.11;68.80;96529.94;5034292;28;978;-60
2022/11/13 01:48:43;;;;;;;;;;;;;;;10.19;68.37;96520.41;5034345;28;1902;-61
2022/11/13 01:51:11;;;;;;;;;;;;;;;10.16;68.83;96527.72;5034036;28;1192;-59
2022/11/13 01:53:39;;;;;;;;;;;;;;;10.19;68.53;96515.94;5034054;28;1149;-60
2022/11/13 01:56:06;;;;;;;;;;;;;;;10.22;68.57;96515.69;5036366;28;1746;-60
2022/11/13 01:58:32;;;;;;;;;;;;;;;10.24;68.40;96521.75;5053870;28;1038;-60
2022/11/13 02:00:58;;;;;;;;;;;;;;;10.19;68.98;96513.28;5053774;28;1031;-60
2022/11/13 02:03:24;;;;;;;;;;;;;;;10.11;68.88;96513.91;5053779;28;1223;-61
2022/11/13 02:05:52;;;;;;;;;;;;;;;10.09;69.08;96517.66;5054020;28;975;-60
2022/11/13 02:08:18;;;;;;;;;;;;;;;10.06;69.31;96516.09;5053755;28;1910;-60
2022/11/13 02:10:44;;;;;;;;;;;;;;;10.03;69.43;96510.97;5053768;28;1144;-61
2022/11/13 02:13:11;;;;;;;;;;;;;;;9.94;69.73;96520.59;5053718;28;1034;-60
2022/11/13 02:15:38;;;;;;;;;;;;;;;10.03;69.51;96513.66;5053532;28;1017;-60
2022/11/13 02:18:04;;;;;;;;;;;;;;;10.10;69.41;96520.19;5053613;28;1065;-61
2022/11/13 02:20:46;;;;;;;;;;;;;;;10.18;69.07;96519.56;5053696;28;1025;-60
2022/11/13 02:23:30;;;;;;;;;;;;;;;10.20;69.22;96520.28;5053548;28;1085;-60
2022/11/13 02:25:57;;;;;;;;;;;;;;;10.18;69.43;96529.44;5053544;28;1054;-60
2022/11/13 02:28:23;;;;;;;;;;;;;;;10.17;69.57;96531.25;5053311;28;1909;-60
2022/11/13 02:30:49;;;;;;;;;;;;;;;10.11;69.63;96527.25;5053675;28;1018;-59
2022/11/13 02:33:20;;;;;;;;;;;;;;;10.10;69.87;96527.38;5053516;28;1045;-60
2022/11/13 02:35:46;;;;;;;;;;;;;;;10.08;69.64;96521.31;5053459;28;966;-60
2022/11/13 02:38:12;;;;;;;;;;;;;;;10.10;69.64;96520.19;5053286;28;1436;-60
2022/11/13 02:40:38;;;;;;;;;;;;;;;10.07;69.79;96516.94;5053090;28;1311;-60
2022/11/13 02:43:05;;;;;;;;;;;;;;;10.04;69.84;96522.53;5053533;28;1077;-60
2022/11/13 02:45:32;;;;;;;;;;;;;;;10.11;69.68;96524.59;5053346;28;930;-60
2022/11/13 02:47:59;;;;;;;;;;;;;;;10.10;70.05;96532.72;5053395;28;1021;-60
2022/11/13 02:50:25;;;;;;;;;;;;;;;10.00;70.01;96529.06;5052998;28;1917;-60
2022/11/13 02:52:51;;;;;;;;;;;;;;;10.06;69.98;96529.44;5053196;28;1069;-60
2022/11/13 02:55:17;;;;;;;;;;;;;;;10.02;70.31;96529.84;5055898;28;1697;-59
2022/11/13 02:57:44;;;;;;;;;;;;;;;10.03;70.58;96531.50;5059784;28;1054;-60
2022/11/13 03:00:11;;;;;;;;;;;;;;;10.16;69.75;96537.56;5059813;28;1070;-60
2022/11/13 03:02:38;;;;;;;;;;;;;;;10.14;69.78;96540.34;5059749;28;1033;-60
2022/11/13 03:05:04;;;;;;;;;;;;;;;10.09;69.92;96531.00;5059885;28;1030;-60
2022/11/13 03:07:30;;;;;;;;;;;;;;;10.11;69.97;96539.75;5059657;28;1121;-60
2022/11/13 03:09:56;;;;;;;;;;;;;;;10.14;70.16;96528.81;5059622;28;1996;-59
2022/11/13 03:12:22;;;;;;;;;;;;;;;10.16;69.94;96533.06;5059556;28;1097;-60
2022/11/13 03:14:48;;;;;;;;;;;;;;;10.21;70.00;96538.06;5059818;28;970;-60
2022/11/13 03:17:14;;;;;;;;;;;;;;;10.24;69.90;96535.09;5059763;28;974;-60
2022/11/13 03:19:40;;;;;;;;;;;;;;;10.29;69.63;96532.91;5042010;28;989;-60
2022/11/13 03:22:06;;;;;;;;;;;;;;;10.28;69.74;96536.59;5059669;28;1040;-60
2022/11/13 03:24:32;;;;;;;;;;;;;;;10.24;69.80;96537.78;5059426;28;970;-60
2022/11/13 03:26:58;;;;;;;;;;;;;;;10.16;70.28;96540.25;5059773;28;1026;-60
2022/11/13 03:29:25;;;;;;;;;;;;;;;10.11;70.32;96545.97;5059367;28;1914;-60
2022/11/13 03:31:51;;;;;;;;;;;;;;;10.19;70.09;96529.31;5059500;28;1050;-60
2022/11/13 03:34:17;;;;;;;;;;;;;;;10.21;70.23;96539.88;5059527;28;981;-60
2022/11/13 03:36:43;;;;;;;;;;;;;;;10.29;70.11;96540.09;5041994;28;1611;-60
2022/11/13 03:39:09;;;;;;;;;;;;;;;10.30;70.34;96532.00;5059255;28;1430;-60
2022/11/13 03:41:35;;;;;;;;;;;;;;;10.28;70.41;96535.72;5041855;28;978;-59
2022/11/13 03:44:01;;;;;;;;;;;;;;;10.27;70.43;96529.53;5059382;28;1113;-60
2022/11/13 03:46:27;;;;;;;;;;;;;;;10.21;70.87;96537.22;5059193;28;1136;-60
2022/11/13 03:48:54;;;;;;;;;;;;;;;10.21;70.53;96539.88;5059356;28;1913;-60
2022/11/13 03:51:20;;;;;;;;;;;;;;;10.15;70.35;96539.41;5059142;28;1582;-60
2022/11/13 03:53:46;;;;;;;;;;;;;;;10.10;70.64;96541.59;5059113;28;1614;-60
2022/11/13 03:56:12;;;;;;;;;;;;;;;10.11;70.41;96545.09;5041846;28;998;-59
2022/11/13 03:58:38;;;;;;;;;;;;;;;10.06;70.46;96541.97;5059432;28;966;-60
2022/11/13 04:01:04;;;;;;;;;;;;;;;10.03;70.79;96536.84;5059243;28;1133;-60
2022/11/13 04:03:30;;;;;;;;;;;;;;;10.07;70.34;96533.84;5059294;28;1013;-60
2022/11/13 04:05:56;;;;;;;;;;;;;;;10.00;70.73;96537.97;5058358;28;1042;-59
2022/11/13 04:08:23;;;;;;;;;;;;;;;9.99;70.69;96546.09;5055151;28;1993;-60
2022/11/13 04:10:49;;;;;;;;;;;;;;;9.97;70.41;96543.53;5056246;28;978;-60
2022/11/13 04:13:15;;;;;;;;;;;;;;;9.96;70.03;96539.19;5056115;28;1029;-60
2022/11/13 04:15:41;;;;;;;;;;;;;;;9.94;69.70;96536.63;5056053;28;946;-60
2022/11/13 04:18:07;;;;;;;;;;;;;;;9.81;69.97;96543.06;5056027;28;1052;-60
2022/11/13 04:20:33;;;;;;;;;;;;;;;9.70;70.52;96541.28;5055910;28;1287;-59
2022/11/13 04:22:59;;;;;;;;;;;;;;;9.65;70.46;96540.78;5055805;28;986;-60
2022/11/13 04:25:25;;;;;;;;;;;;;;;9.57;71.00;96542.22;5055877;28;950;-60
2022/11/13 04:27:52;;;;;;;;;;;;;;;9.69;70.92;96545.75;5055700;28;1086;-60
2022/11/13 04:30:18;;;;;;;;;;;;;;;9.75;70.76;96544.41;5055798;28;1981;-59
2022/11/13 04:32:44;;;;;;;;;;;;;;;9.76;71.15;96532.75;5055728;28;978;-59
2022/11/13 04:35:11;;;;;;;;;;;;;;;9.80;71.06;96544.06;5055528;28;1105;-59
2022/11/13 04:37:37;;;;;;;;;;;;;;;9.79;70.80;96537.88;5055299;28;1524;-60
2022/11/13 04:40:03;;;;;;;;;;;;;;;9.77;70.79;96537.97;5055441;28;1054;-59
2022/11/13 04:42:47;;;;;;;;;;;;;;;9.82;70.78;96537.59;5055545;28;1021;-59
2022/11/13 04:45:15;;;;;;;;;;;;;;;9.83;70.91;96539.31;5055420;28;1112;-59
2022/11/13 04:47:41;;;;;;;;;;;;;;;9.90;70.70;96532.53;5055307;28;1218;-59
2022/11/13 04:50:07;;;;;;;;;;;;;;;9.81;70.97;96540.38;5037365;28;1906;-59
2022/11/13 04:52:33;;;;;;;;;;;;;;;9.85;70.97;96524.00;5055121;28;1128;-59
2022/11/13 04:54:59;;;;;;;;;;;;;;;9.88;71.26;96536.28;5055083;28;1704;-59
2022/11/13 04:57:26;;;;;;;;;;;;;;;9.86;71.39;96539.06;5055285;28;1029;-59
2022/11/13 04:59:52;;;;;;;;;;;;;;;9.79;71.69;96543.22;5055116;28;1050;-59
2022/11/13 05:02:18;;;;;;;;;;;;;;;9.76;71.92;96541.63;5054962;28;1117;-59
2022/11/13 05:04:44;;;;;;;;;;;;;;;9.90;71.61;96537.00;5055042;28;986;-59
2022/11/13 05:07:10;;;;;;;;;;;;;;;10.01;71.02;96536.13;5054864;28;1093;-59
2022/11/13 05:09:36;;;;;;;;;;;;;;;10.05;71.07;96538.44;5054731;28;1902;-60
2022/11/13 05:12:06;;;;;;;;;;;;;;;10.03;71.38;96537.69;5054895;28;1030;-60
2022/11/13 05:14:36;;;;;;;;;;;;;;;10.02;71.62;96541.38;5054769;28;1058;-60
2022/11/13 05:17:03;;;;;;;;;;;;;;;10.08;71.12;96542.69;5054767;28;1054;-61
2022/11/13 05:19:30;;;;;;;;;;;;;;;10.11;71.17;96542.44;5054328;28;1030;-60
2022/11/13 05:21:56;;;;;;;;;;;;;;;10.19;71.18;96545.34;5054942;28;1025;-60
2022/11/13 05:24:22;;;;;;;;;;;;;;;10.29;70.37;96551.63;5054721;28;1013;-59
2022/11/13 05:26:49;;;;;;;;;;;;;;;10.19;71.20;96556.03;5054562;28;1055;-61
2022/11/13 05:29:15;;;;;;;;;;;;;;;10.15;71.06;96559.94;5036723;28;1985;-59
2022/11/13 05:31:41;;;;;;;;;;;;;;;10.10;71.49;96556.78;5054578;28;1006;-60
2022/11/13 05:34:07;;;;;;;;;;;;;;;10.14;71.12;96555.56;5054392;28;1114;-61
2022/11/13 05:36:33;;;;;;;;;;;;;;;10.08;71.36;96566.75;5054283;28;1128;-61
2022/11/13 05:38:59;;;;;;;;;;;;;;;10.09;71.43;96568.44;5054243;28;1691;-60
2022/11/13 05:41:26;;;;;;;;;;;;;;;10.13;71.32;96567.19;5054365;28;1009;-60
2022/11/13 05:43:52;;;;;;;;;;;;;;;10.14;71.08;96571.59;5054406;28;999;-60
2022/11/13 05:46:20;;;;;;;;;;;;;;;10.16;71.23;96575.81;5054119;28;1106;-60
2022/11/13 05:48:47;;;;;;;;;;;;;;;10.22;71.01;96570.97;5053936;28;1894;-60
2022/11/13 05:51:17;;;;;;;;;;;;;;;10.01;71.31;96574.38;5054037;28;1097;-61
2022/11/13 05:53:43;;;;;;;;;;;;;;;10.03;71.39;96579.63;5054525;28;1626;-61
2022/11/13 05:56:11;;;;;;;;;;;;;;;9.95;71.69;96581.06;5054169;28;958;-60
2022/11/13 05:58:38;;;;;;;;;;;;;;;9.99;71.47;96579.00;5053944;28;1065;-60
2022/11/13 06:01:12;;;;;;;;;;;;;;;9.96;71.29;96585.47;5054036;28;1272;-63
2022/11/13 06:03:38;;;;;;;;;;;;;;;10.00;71.19;96583.41;5053781;28;1049;-61
2022/11/13 06:06:05;;;;;;;;;;;;;;;10.17;70.63;96595.41;5053881;28;1591;-61
2022/11/13 06:08:31;;;;;;;;;;;;;;;10.06;71.17;96590.06;5035995;28;2010;-64
2022/11/13 06:10:59;;;;;;;;;;;;;;;10.04;71.13;96590.19;5053700;28;1108;-61
2022/11/13 06:13:25;;;;;;;;;;;;;;;10.05;71.07;96593.69;5053724;28;1041;-61
2022/11/13 06:15:51;;;;;;;;;;;;;;;10.10;70.57;96589.69;5053669;28;1070;-61
2022/11/13 06:18:22;;;;;;;;;;;;;;;10.14;70.35;96591.13;5053541;28;1126;-61
2022/11/13 06:20:48;;;;;;;;;;;;;;;10.30;70.47;96589.91;5053781;28;1053;-60
2022/11/13 06:23:14;;;;;;;;;;;;;;;10.34;70.22;96586.91;5053597;28;2007;-61
2022/11/13 06:25:40;;;;;;;;;;;;;;;10.35;70.34;96585.06;5053409;28;1124;-61
2022/11/13 06:28:06;;;;;;;;;;;;;;;10.90;69.04;96587.69;5053616;28;1006;-63
2022/11/13 06:30:32;;;;;;;;;;;;;;;11.91;64.97;96588.94;5034858;28;1918;-60
2022/11/13 06:32:58;;;;;;;;;;;;;;;11.67;65.52;96589.22;5053686;28;994;-60
2022/11/13 06:35:24;;;;;;;;;;;;;;;11.50;65.84;96593.38;5053343;28;1058;-60
2022/11/13 06:37:50;;;;;;;;;;;;;;;11.93;65.17;96591.50;5053445;28;1421;-59
2022/11/13 06:40:16;;;;;;;;;;;;;;;13.00;61.73;96595.28;5053401;28;942;-60
2022/11/13 06:42:42;;;;;;;;;;;;;;;14.70;56.67;96593.59;5053317;28;1053;-61
2022/11/13 06:45:09;;;;;;;;;;;;;;;15.93;53.32;96596.50;5053326;28;1039;-60
2022/11/13 06:47:36;;;;;;;;;;;;;;;16.09;52.17;96601.16;5053164;28;1054;-60
2022/11/13 06:50:03;;;;;;;;;;;;;;;17.00;49.72;96602.34;5035559;28;1910;-61
2022/11/13 06:52:29;;;;;;;;;;;;;;;17.67;48.30;96603.09;5053170;28;1062;-59
2022/11/13 06:54:55;;;;;;;;;;;;;;;17.73;47.10;96596.16;5053071;28;1677;-60
2022/11/13 06:57:21;;;;;;;;;;;;;;;17.66;47.79;96584.31;5053154;28;1195;-60
2022/11/13 06:59:47;;;;;;;;;;;;;;;17.38;48.34;96587.38;5053136;28;1042;-60
2022/11/13 07:02:13;;;;;;;;;;;;;;;17.70;47.17;96594.63;5053086;28;1009;-60
2022/11/13 07:04:39;;;;;;;;;;;;;;;18.38;45.31;96597.88;5053227;28;970;-60
2022/11/13 07:07:05;;;;;;;;;;;;;;;18.70;44.87;96594.22;5053088;28;1066;-60
2022/11/13 07:09:31;;;;;;;;;;;;;;;18.26;45.66;96593.88;5052941;28;1965;-60
2022/11/13 07:11:57;;;;;;;;;;;;;;;18.17;46.21;96593.03;5053163;28;1005;-60
2022/11/13 07:14:23;;;;;;;;;;;;;;;18.34;46.11;96589.28;5052932;28;1021;-61
2022/11/13 07:16:49;;;;;;;;;;;;;;;18.46;44.44;96600.59;5052986;28;990;-61
2022/11/13 07:19:15;;;;;;;;;;;;;;;17.37;46.74;96583.81;5052868;28;1038;-60
2022/11/13 07:21:41;;;;;;;;;;;;;;;16.29;49.61;96588.25;5053119;28;1065;-61
2022/11/13 07:24:07;;;;;;;;;;;;;;;15.46;52.29;96583.31;5035418;28;1037;-60
2022/11/13 07:26:33;;;;;;;;;;;;;;;14.94;54.16;96576.81;5052882;28;1036;-59
2022/11/13 07:28:59;;;;;;;;;;;;;;;14.57;55.20;96585.00;5052846;28;2254;-60
2022/11/13 07:31:25;;;;;;;;;;;;;;;14.35;56.06;96576.31;5053023;28;971;-60
2022/11/13 07:33:51;;;;;;;;;;;;;;;14.12;57.10;96581.22;5052846;28;1042;-59
2022/11/13 07:36:17;;;;;;;;;;;;;;;14.03;56.90;96585.66;5052921;28;1042;-60
2022/11/13 07:38:43;;;;;;;;;;;;;;;13.98;57.54;96585.25;5052684;28;1441;-59
2022/11/13 07:41:09;;;;;;;;;;;;;;;14.09;56.77;96586.91;5053783;28;1220;-60
2022/11/13 07:43:35;;;;;;;;;;;;;;;15.08;54.56;96583.53;5056425;28;1317;-60
2022/11/13 07:46:01;;;;;;;;;;;;;;;15.59;53.00;96581.94;5056508;28;1053;-60
2022/11/13 07:48:28;;;;;;;;;;;;;;;16.15;51.36;96585.16;5056525;28;1993;-60
2022/11/13 07:50:58;;;;;;;;;;;;;;;16.16;50.53;96578.75;5056419;28;1235;-60
2022/11/13 07:53:24;;;;;;;;;;;;;;;15.86;51.53;96573.84;5038620;28;1284;-59
2022/11/13 07:55:50;;;;;;;;;;;;;;;15.31;53.02;96567.72;5056260;28;1618;-61
2022/11/13 07:58:16;;;;;;;;;;;;;;;15.11;53.84;96563.50;5056109;28;1013;-61
2022/11/13 08:00:42;;;;;;;;;;;;;;;14.91;54.74;96560.09;5056527;28;994;-60
2022/11/13 08:03:11;;;;;;;;;;;;;;;14.84;55.53;96559.88;5056236;28;1084;-61
2022/11/13 08:05:38;;;;;;;;;;;;;;;14.85;55.37;96558.88;5056131;28;1207;-62
2022/11/13 08:08:04;;;;;;;;;;;;;;;14.80;55.88;96562.03;5056216;28;1057;-61
2022/11/13 08:10:30;;;;;;;;;;;;;;;14.88;55.98;96563.97;5055985;28;1934;-61
2022/11/13 08:13:01;;;;;;;;;;;;;;;15.03;55.45;96565.13;5056051;28;1077;-61
2022/11/13 08:15:28;;;;;;;;;;;;;;;14.81;55.85;96555.63;5056169;28;1061;-61
2022/11/13 08:17:55;;;;;;;;;;;;;;;14.70;56.36;96566.66;5055863;28;1105;-60
2022/11/13 08:20:22;;;;;;;;;;;;;;;14.94;55.96;96560.66;5055992;28;974;-61
2022/11/13 08:22:48;;;;;;;;;;;;;;;15.38;54.99;96565.22;5054348;28;2007;-61
2022/11/13 08:25:15;;;;;;;;;;;;;;;15.91;53.27;96569.66;5049424;28;2155;-61
2022/11/13 08:27:41;;;;;;;;;;;;;;;16.75;50.96;96567.13;5055672;28;1086;-61
2022/11/13 08:30:07;;;;;;;;;;;;;;;17.87;48.92;96578.41;5055828;28;1906;-62
2022/11/13 08:32:34;;;;;;;;;;;;;;;19.57;45.07;96587.72;5055767;28;1060;-62
2022/11/13 08:34:59;;;;;;;;;;;;;;;21.04;41.93;96590.72;5053768;28;2115;-60
2022/11/13 08:37:25;;;;;;;;;;;;;;;23.13;37.69;96603.03;5046585;28;1995;-60
2022/11/13 08:39:51;;;;;;;;;;;;;;;24.16;35.44;96608.22;5046074;28;1117;-61
2022/11/13 08:42:18;;;;;;;;;;;;;;;24.79;35.27;96612.34;5035731;28;1041;-61
2022/11/13 08:44:44;;;;;;;;;;;;;;;25.55;33.66;96619.81;5035435;28;1070;-61
2022/11/13 08:47:10;;;;;;;;;;;;;;;23.61;35.84;96602.09;5047014;28;1493;-61
2022/11/13 08:49:36;;;;;;;;;;;;;;;22.08;38.71;96585.84;5035206;28;1999;-60
2022/11/13 08:52:02;;;;;;;;;;;;;;;24.86;34.51;96616.75;5040755;28;1991;-61
2022/11/13 08:54:28;;;;;;;;;;;;;;;23.12;36.23;96604.91;5048833;28;1899;-61
2022/11/13 08:56:54;;;;;;;;;;;;;;;20.42;41.06;96580.31;5047609;28;1893;-62
2022/11/13 08:59:22;;;;;;;;;;;;;;;18.38;44.72;96559.97;5026363;28;3051;-62
2022/11/13 09:01:49;;;;;;;;;;;;;;;17.85;46.32;96556.09;5047425;28;2023;-62
2022/11/13 09:04:15;;;;;;;;;;;;;;;17.22;48.99;96557.63;5035176;28;1065;-61
2022/11/13 09:06:42;;;;;;;;;;;;;;;17.02;49.51;96555.25;5035250;28;974;-62
2022/11/13 09:09:08;;;;;;;;;;;;;;;16.43;50.60;96560.66;5035084;28;1914;-61
2022/11/13 09:11:35;;;;;;;;;;;;;;;16.24;51.29;96556.38;5050301;28;1094;-64
2022/11/13 09:14:01;;;;;;;;;;;;;;;16.00;52.01;96555.22;5054845;28;1149;-63
2022/11/13 09:16:27;;;;;;;;;;;;;;;17.68;48.23;96566.06;5054964;28;1034;-63
2022/11/13 09:18:53;;;;;;;;;;;;;;;18.21;46.41;96551.09;5054955;28;1046;-63
2022/11/13 09:21:19;;;;;;;;;;;;;;;17.34;47.84;96559.84;5054457;28;1093;-64
2022/11/13 09:23:45;;;;;;;;;;;;;;;16.59;50.24;96566.09;5036866;28;1221;-63
2022/11/13 09:26:11;;;;;;;;;;;;;;;17.68;48.67;96556.09;5054588;28;1038;-62
2022/11/13 09:28:37;;;;;;;;;;;;;;;20.05;43.09;96569.34;5054440;28;1989;-62
2022/11/13 09:31:04;;;;;;;;;;;;;;;19.82;43.55;96563.97;5048521;28;2006;-63
2022/11/13 09:33:30;;;;;;;;;;;;;;;19.53;44.13;96553.03;5039307;28;1102;-64
2022/11/13 09:35:56;;;;;;;;;;;;;;;19.29;44.58;96557.59;5034565;28;1093;-63
2022/11/13 09:38:22;;;;;;;;;;;;;;;19.30;44.93;96549.31;5043550;28;1545;-63
2022/11/13 09:40:57;;;;;;;;;;;;;;;18.90;45.50;96545.03;5054290;28;1044;-64
2022/11/13 09:43:23;;;;;;;;;;;;;;;18.79;44.74;96539.97;5027970;28;2374;-63
2022/11/13 09:45:52;;;;;;;;;;;;;;;19.78;43.52;96545.53;5046885;28;2045;-64
2022/11/13 09:48:18;;;;;;;;;;;;;;;20.34;42.38;96545.09;5046248;28;2091;-64
2022/11/13 09:50:45;;;;;;;;;;;;;;;20.69;41.20;96548.06;5027026;28;1626;-63
2022/11/13 09:53:12;;;;;;;;;;;;;;;20.90;41.36;96544.56;5036789;28;1037;-62
2022/11/13 09:55:40;;;;;;;;;;;;;;;21.17;41.05;96542.94;5037952;28;1582;-61
2022/11/13 09:58:06;;;;;;;;;;;;;;;21.96;39.90;96550.16;5016930;28;990;-62
2022/11/13 10:00:33;;;;;;;;;;;;;;;22.48;39.04;96542.53;5039654;28;1049;-62
2022/11/13 10:03:18;;;;;;;;;;;;;;;22.49;38.60;96539.59;5054228;28;1049;-62
2022/11/13 10:06:04;;;;;;;;;;;;;;;22.71;36.59;96540.34;5052890;28;1038;-61
2022/11/13 10:08:39;;;;;;;;;;;;;;;22.90;36.46;96535.16;5043120;28;1905;-61
2022/11/13 10:11:21;;;;;;;;;;;;;;;22.89;36.72;96528.03;5053091;28;1868;-62
2022/11/13 10:13:52;;;;;;;;;;;;;;;22.79;36.65;96533.88;5043874;28;1854;-62
2022/11/13 10:16:36;;;;;;;;;;;;;;;22.59;37.80;96526.47;5053054;28;1595;-63
2022/11/13 10:19:11;;;;;;;;;;;;;;;22.16;37.76;96523.06;5053774;28;970;-61
2022/11/13 10:21:47;;;;;;;;;;;;;;;21.80;39.10;96516.75;5035675;28;1151;-61
2022/11/13 10:24:16;;;;;;;;;;;;;;;21.34;40.07;96506.31;5053620;28;1021;-62
2022/11/13 10:26:42;;;;;;;;;;;;;;;20.82;40.84;96508.28;5045760;28;1726;-64
2022/11/13 10:29:13;;;;;;;;;;;;;;;20.24;41.47;96496.47;5035257;28;1989;-61
2022/11/13 10:31:42;;;;;;;;;;;;;;;19.60;42.28;96491.59;5047419;28;959;-61
2022/11/13 10:34:09;;;;;;;;;;;;;;;19.33;43.81;96484.88;5040569;28;1999;-61
2022/11/13 10:36:44;;;;;;;;;;;;;;;19.57;43.44;96489.22;5047388;28;1570;-61
2022/11/13 10:39:10;;;;;;;;;;;;;;;19.79;42.44;96495.66;5043261;28;2020;-61
2022/11/13 10:41:47;;;;;;;;;;;;;;;19.89;42.39;96488.06;5050736;28;1623;-60
2022/11/13 10:44:29;;;;;;;;;;;;;;;19.98;41.86;96486.97;5053481;28;1005;-63
2022/11/13 10:47:05;;;;;;;;;;;;;;;19.92;42.30;96485.00;5038125;28;1844;-65
2022/11/13 10:49:31;;;;;;;;;;;;;;;19.67;43.00;96474.38;5044793;28;1914;-61
2022/11/13 10:51:59;;;;;;;;;;;;;;;19.33;42.84;96471.31;5052611;28;1206;-60
2022/11/13 10:54:28;;;;;;;;;;;;;;;19.16;43.93;96465.19;5046835;28;1625;-61
2022/11/13 10:56:59;;;;;;;;;;;;;;;18.86;43.84;96457.00;5033279;28;1015;-61
2022/11/13 10:59:25;;;;;;;;;;;;;;;18.63;45.22;96448.78;5015702;28;1084;-61
2022/11/13 11:01:51;;;;;;;;;;;;;;;18.52;44.98;96447.38;5047515;28;1262;-61
2022/11/13 11:04:26;;;;;;;;;;;;;;;18.37;44.85;96446.44;5052934;28;998;-61
2022/11/13 11:06:53;;;;;;;;;;;;;;;18.27;45.83;96441.25;5044428;28;2622;-61
2022/11/13 11:09:19;;;;;;;;;;;;;;;18.21;45.06;96440.09;5032905;28;1962;-61
2022/11/13 11:14:32;;;;;;;;;;;;;;;18.11;46.29;96428.63;5046507;28;1010;-61
2022/11/13 11:17:00;;;;;;;;;;;;;;;18.03;46.03;96429.53;5037654;28;960;-61
2022/11/13 11:19:28;;;;;;;;;;;;;;;18.04;46.31;96431.22;5057156;28;974;-60
2022/11/13 11:22:00;;;;;;;;;;;;;;;18.04;46.74;96416.81;5056737;28;1145;-61
2022/11/13 11:24:30;;;;;;;;;;;;;;;17.97;46.63;96413.16;5056855;28;1128;-62
2022/11/13 11:27:00;;;;;;;;;;;;;;;17.94;47.14;96415.19;5056935;28;986;-63
2022/11/13 11:29:26;;;;;;;;;;;;;;;17.93;46.97;96418.91;5056726;28;1995;-63
2022/11/13 11:32:00;;;;;;;;;;;;;;;17.88;47.56;96407.78;5056743;28;1218;-64
2022/11/13 11:34:33;;;;;;;;;;;;;;;17.82;47.35;96407.63;5048489;28;1833;-64
2022/11/13 11:37:06;;;;;;;;;;;;;;;17.80;47.93;96398.84;5047906;28;1259;-63
2022/11/13 11:39:32;;;;;;;;;;;;;;;17.74;47.56;96409.34;5037913;28;1168;-63
2022/11/13 11:42:10;;;;;;;;;;;;;;;17.72;48.26;96402.41;5036657;28;1070;-71
2022/11/13 11:44:52;;;;;;;;;;;;;;;17.70;48.04;96404.44;5018923;28;1066;-62
2022/11/13 11:47:18;;;;;;;;;;;;;;;17.73;48.07;96398.69;5041947;28;1917;-63
2022/11/13 11:49:44;;;;;;;;;;;;;;;17.72;47.99;96397.00;5049579;28;1975;-62
2022/11/13 11:52:18;;;;;;;;;;;;;;;17.68;47.95;96403.75;5036683;28;1156;-63
2022/11/13 11:55:00;;;;;;;;;;;;;;;17.61;48.06;96395.53;5044889;28;1623;-62
2022/11/13 11:57:45;;;;;;;;;;;;;;;17.58;47.97;96398.56;5055919;28;1237;-63
2022/11/13 12:00:16;;;;;;;;;;;;;;;17.56;48.38;96392.50;5056246;28;1017;-59
2022/11/13 12:02:57;;;;;;;;;;;;;;;17.57;48.62;96386.06;5056239;28;1059;-60
2022/11/13 12:05:28;;;;;;;;;;;;;;;17.54;47.28;96387.25;5055904;28;1112;-60
2022/11/13 12:07:59;;;;;;;;;;;;;;;17.53;48.27;96382.88;5038067;28;1298;-60
2022/11/13 12:10:28;;;;;;;;;;;;;;;17.50;48.28;96380.50;5056118;28;1979;-61
2022/11/13 12:13:13;;;;;;;;;;;;;;;17.49;48.27;96380.69;5055964;28;1194;-59
2022/11/13 12:15:57;;;;;;;;;;;;;;;17.45;48.26;96379.34;5055892;28;1013;-59
2022/11/13 12:18:35;;;;;;;;;;;;;;;17.46;48.61;96372.94;5055880;28;1268;-59
2022/11/13 12:21:20;;;;;;;;;;;;;;;17.39;48.34;96367.38;5055986;28;1097;-59
2022/11/13 12:23:55;;;;;;;;;;;;;;;17.35;48.58;96372.28;5055952;28;1032;-59
2022/11/13 12:26:41;;;;;;;;;;;;;;;17.35;48.90;96363.31;5056013;28;1052;-59
2022/11/13 12:29:26;;;;;;;;;;;;;;;17.33;48.76;96360.78;5054286;28;1910;-59
2022/11/13 12:32:11;;;;;;;;;;;;;;;17.31;48.80;96359.28;5055788;28;1004;-59
2022/11/13 12:34:42;;;;;;;;;;;;;;;17.26;49.03;96353.56;5055557;28;1037;-59
2022/11/13 12:37:13;;;;;;;;;;;;;;;17.24;48.55;96361.00;5055851;28;1228;-59
2022/11/13 12:39:42;;;;;;;;;;;;;;;17.10;48.91;96344.47;5055126;28;1473;-59
2022/11/13 12:42:26;;;;;;;;;;;;;;;17.10;49.32;96349.88;5055610;28;1234;-59
2022/11/13 12:45:12;;;;;;;;;;;;;;;17.07;49.12;96346.69;5055290;28;1102;-60
2022/11/13 12:47:38;;;;;;;;;;;;;;;17.07;49.99;96346.69;5054725;28;1113;-59
2022/11/13 12:50:19;;;;;;;;;;;;;;;17.05;49.03;96351.41;5054614;28;1879;-58
2022/11/13 12:52:56;;;;;;;;;;;;;;;17.04;49.40;96345.19;5055392;28;1057;-58
2022/11/13 12:55:29;;;;;;;;;;;;;;;17.06;49.80;96347.72;5055112;28;1606;-58
2022/11/13 12:58:06;;;;;;;;;;;;;;;17.05;48.72;96343.31;5054632;28;1624;-59
2022/11/13 13:00:33;;;;;;;;;;;;;;;17.02;49.06;96347.22;5054991;28;1062;-59
2022/11/13 13:02:59;;;;;;;;;;;;;;;17.02;49.60;96346.38;5055385;28;1045;-58
2022/11/13 13:05:29;;;;;;;;;;;;;;;17.00;49.28;96348.38;5054379;28;2141;-58
2022/11/13 13:08:04;;;;;;;;;;;;;;;16.93;49.46;96349.06;5054979;28;1049;-59